Time;durP1;ratioP1;P1;durP2;ratioP2;P2;SDS_P1;SDS_P2;PMS_P1;PMS_P2;Temp;Humidity;BMP_temperature;BMP_pressure;BME280_temperature;BME280_humidity;BME280_pressure;Samples;Min_cycle;Max_cycle;Signal;HPM_P1;HPM_P2
2023/07/09 00:01:18;;;;;;;15.83;9.93;;;;;;;;;;4972425;28;20199;-69
2023/07/09 00:03:46;;;;;;;13.17;9.93;;;;;;;;;;4987876;28;20264;-68
2023/07/09 00:06:30;;;;;;;14.33;8.93;;;;;;;;;;4975156;28;20173;-68
2023/07/09 00:08:58;;;;;;;14.37;8.80;;;;;;;;;;4989763;28;20675;-68
2023/07/09 00:11:42;;;;;;;16.77;9.03;;;;;;;;;;4989275;28;20187;-68
2023/07/09 00:14:10;;;;;;;11.97;9.23;;;;;;;;;;4989668;28;20313;-68
2023/07/09 00:16:37;;;;;;;12.33;9.53;;;;;;;;;;4989827;28;20199;-68
2023/07/09 00:19:05;;;;;;;14.23;8.70;;;;;;;;;;4970759;28;20193;-68
2023/07/09 00:21:33;;;;;;;13.43;9.10;;;;;;;;;;4972019;28;20683;-68
2023/07/09 00:24:04;;;;;;;14.97;10.10;;;;;;;;;;4989577;28;20196;-69
2023/07/09 00:26:34;;;;;;;16.70;10.30;;;;;;;;;;4989230;28;20192;-68
2023/07/09 00:29:01;;;;;;;12.13;8.67;;;;;;;;;;4971876;28;20937;-68
2023/07/09 00:31:29;;;;;;;14.63;9.10;;;;;;;;;;4989483;28;20189;-68
2023/07/09 00:33:56;;;;;;;13.43;9.67;;;;;;;;;;4988155;28;20208;-68
2023/07/09 00:36:43;;;;;;;13.10;9.83;;;;;;;;;;4988813;28;20571;-68
2023/07/09 00:39:17;;;;;;;12.37;9.50;;;;;;;;;;4987805;28;20203;-68
2023/07/09 00:41:46;;;;;;;11.13;9.27;;;;;;;;;;4987934;28;20947;-68
2023/07/09 00:44:19;;;;;;;13.43;10.37;;;;;;;;;;4989144;28;20188;-68
2023/07/09 00:46:49;;;;;;;13.13;9.17;;;;;;;;;;4971589;28;20707;-68
2023/07/09 00:49:29;;;;;;;12.37;8.73;;;;;;;;;;4989098;28;20390;-68
2023/07/09 00:52:22;;;;;;;10.23;8.17;;;;;;;;;;4988523;28;20227;-68
2023/07/09 01:26:46;;;;;;;38.77;11.57;;;;;;;;;;4987826;28;20272;-68
2023/07/09 01:29:13;;;;;;;30.93;9.47;;;;;;;;;;4987110;28;20225;-68
2023/07/09 01:31:40;;;;;;;22.10;9.87;;;;;;;;;;4971105;28;20232;-68
2023/07/09 01:34:07;;;;;;;24.03;9.73;;;;;;;;;;4970448;28;20819;-68
2023/07/09 01:36:34;;;;;;;18.40;9.07;;;;;;;;;;4988342;28;20228;-68
2023/07/09 01:39:01;;;;;;;18.30;10.00;;;;;;;;;;4988039;28;20288;-68
2023/07/09 01:41:28;;;;;;;14.87;9.50;;;;;;;;;;4986978;28;20267;-68
2023/07/09 01:43:55;;;;;;;15.07;9.57;;;;;;;;;;4970594;28;20200;-68
2023/07/09 01:46:24;;;;;;;14.00;8.60;;;;;;;;;;4970797;28;20215;-70
2023/07/09 01:48:52;;;;;;;12.07;9.27;;;;;;;;;;4987903;28;20283;-70
2023/07/09 01:51:37;;;;;;;14.67;9.53;;;;;;;;;;4987906;28;20225;-70
2023/07/09 01:54:04;;;;;;;11.47;8.40;;;;;;;;;;4970119;28;20291;-70
2023/07/09 01:56:31;;;;;;;12.07;8.87;;;;;;;;;;4988189;28;20522;-70
2023/07/09 01:59:01;;;;;;;13.47;9.00;;;;;;;;;;4968522;28;20247;-70
2023/07/09 02:01:28;;;;;;;12.50;8.33;;;;;;;;;;4970786;28;20575;-70
2023/07/09 02:03:55;;;;;;;13.70;9.20;;;;;;;;;;4987946;28;20180;-70
2023/07/09 02:06:24;;;;;;;14.97;9.57;;;;;;;;;;4969893;28;20257;-69
2023/07/09 02:08:52;;;;;;;11.30;8.67;;;;;;;;;;4970403;28;20217;-69
2023/07/09 02:11:20;;;;;;;13.13;9.43;;;;;;;;;;4987653;28;20279;-69
2023/07/09 02:13:47;;;;;;;16.53;10.60;;;;;;;;;;4986231;28;20884;-69
2023/07/09 02:16:14;;;;;;;17.67;11.70;;;;;;;;;;4988034;28;20200;-69
2023/07/09 02:18:58;;;;;;;23.10;11.90;;;;;;;;;;4987936;28;20177;-69
2023/07/09 02:21:29;;;;;;;15.10;10.10;;;;;;;;;;4987646;28;20212;-69
2023/07/09 02:24:14;;;;;;;18.50;10.43;;;;;;;;;;4986363;28;20173;-69
2023/07/09 02:26:41;;;;;;;16.33;10.20;;;;;;;;;;4986413;28;20189;-69
2023/07/09 02:29:08;;;;;;;17.17;11.47;;;;;;;;;;4987720;28;20235;-69
2023/07/09 02:31:34;;;;;;;16.27;11.30;;;;;;;;;;4986785;28;20224;-69
2023/07/09 02:34:03;;;;;;;16.93;11.53;;;;;;;;;;4987668;28;20983;-69
2023/07/09 02:36:29;;;;;;;16.03;9.90;;;;;;;;;;4986293;28;20193;-69
2023/07/09 02:38:56;;;;;;;18.37;10.80;;;;;;;;;;4987800;28;20200;-69
2023/07/09 02:41:23;;;;;;;17.00;11.70;;;;;;;;;;4987734;28;20196;-69
2023/07/09 02:44:08;;;;;;;17.33;11.53;;;;;;;;;;4986620;28;20634;-69
2023/07/09 02:46:35;;;;;;;17.10;12.10;;;;;;;;;;4970816;28;20218;-69
2023/07/09 02:49:20;;;;;;;17.70;12.83;;;;;;;;;;4987882;28;20277;-69
2023/07/09 02:51:47;;;;;;;16.37;11.93;;;;;;;;;;4984606;28;20225;-69
2023/07/09 02:54:31;;;;;;;17.37;13.00;;;;;;;;;;4972954;28;20174;-69
2023/07/09 02:56:58;;;;;;;17.70;12.50;;;;;;;;;;4986176;28;20199;-69
2023/07/09 02:59:26;;;;;;;16.07;12.03;;;;;;;;;;4987213;28;20208;-69
2023/07/09 03:01:53;;;;;;;18.77;12.23;;;;;;;;;;4985409;28;20719;-69
2023/07/09 03:04:20;;;;;;;16.70;12.63;;;;;;;;;;4986434;28;20672;-69
2023/07/09 03:06:47;;;;;;;15.23;11.67;;;;;;;;;;4986183;28;20220;-69
2023/07/09 03:09:14;;;;;;;18.93;13.27;;;;;;;;;;4986229;28;20217;-69
2023/07/09 03:11:41;;;;;;;15.93;11.93;;;;;;;;;;4989255;28;20198;-69
2023/07/09 03:14:08;;;;;;;15.23;11.83;;;;;;;;;;4989487;28;20251;-69
2023/07/09 03:16:35;;;;;;;17.87;11.67;;;;;;;;;;4989761;28;20193;-69
2023/07/09 03:19:03;;;;;;;18.90;12.97;;;;;;;;;;4990749;28;20188;-69
2023/07/09 03:21:47;;;;;;;17.37;12.73;;;;;;;;;;4974944;28;20184;-69
2023/07/09 03:24:18;;;;;;;17.23;13.53;;;;;;;;;;4988124;28;20286;-69
2023/07/09 03:26:46;;;;;;;16.30;12.53;;;;;;;;;;4990042;28;20220;-69
2023/07/09 03:29:13;;;;;;;16.57;12.63;;;;;;;;;;4990966;28;20220;-69
2023/07/09 03:31:40;;;;;;;16.87;11.80;;;;;;;;;;4990980;28;20192;-69
2023/07/09 03:34:24;;;;;;;15.33;11.27;;;;;;;;;;4990520;28;20188;-69
2023/07/09 03:36:51;;;;;;;17.00;12.67;;;;;;;;;;4988899;28;20192;-69
2023/07/09 03:39:35;;;;;;;17.17;12.53;;;;;;;;;;4990600;28;20311;-69
2023/07/09 03:42:02;;;;;;;18.70;13.03;;;;;;;;;;4989165;28;20193;-69
2023/07/09 03:44:46;;;;;;;18.23;13.20;;;;;;;;;;4987966;28;20236;-69
2023/07/09 03:47:13;;;;;;;18.73;12.97;;;;;;;;;;4990534;28;20192;-69
2023/07/09 03:49:41;;;;;;;15.07;12.27;;;;;;;;;;4990465;28;20220;-69
2023/07/09 03:52:08;;;;;;;16.13;11.70;;;;;;;;;;4988938;28;20320;-69
2023/07/09 03:54:35;;;;;;;15.77;11.37;;;;;;;;;;4989329;28;20192;-69
2023/07/09 03:57:01;;;;;;;15.27;11.97;;;;;;;;;;4990168;28;21014;-69
2023/07/09 03:59:28;;;;;;;12.80;10.93;;;;;;;;;;4988929;28;20664;-69
2023/07/09 04:01:55;;;;;;;14.03;11.23;;;;;;;;;;4987793;28;20640;-69
2023/07/09 04:04:22;;;;;;;14.53;10.53;;;;;;;;;;4990216;28;20201;-69
2023/07/09 04:06:49;;;;;;;15.10;11.07;;;;;;;;;;4989313;28;20255;-70
2023/07/09 04:09:16;;;;;;;14.67;10.53;;;;;;;;;;4989961;28;20209;-69
2023/07/09 04:11:43;;;;;;;14.10;10.83;;;;;;;;;;4988904;28;20192;-69
2023/07/09 04:14:09;;;;;;;14.03;10.50;;;;;;;;;;4988041;28;20659;-69
2023/07/09 04:16:36;;;;;;;12.97;9.90;;;;;;;;;;4990159;28;20618;-69
2023/07/09 04:19:03;;;;;;;13.37;9.27;;;;;;;;;;4987761;28;20268;-69
2023/07/09 04:21:30;;;;;;;12.20;9.17;;;;;;;;;;4987872;28;20181;-69
2023/07/09 04:23:57;;;;;;;14.60;9.40;;;;;;;;;;4989974;28;20648;-69
2023/07/09 04:26:41;;;;;;;15.83;10.00;;;;;;;;;;4989475;28;20180;-69
2023/07/09 04:29:07;;;;;;;11.07;8.80;;;;;;;;;;4988237;28;20238;-69
2023/07/09 04:31:52;;;;;;;13.50;9.57;;;;;;;;;;4989562;28;20171;-69
2023/07/09 04:34:19;;;;;;;11.90;8.97;;;;;;;;;;4988322;28;21005;-69
2023/07/09 04:37:07;;;;;;;14.60;8.87;;;;;;;;;;4989250;28;20189;-69
2023/07/09 04:39:33;;;;;;;11.77;9.10;;;;;;;;;;4987735;28;20572;-69
2023/07/09 04:42:00;;;;;;;12.03;9.30;;;;;;;;;;4989245;28;20674;-69
2023/07/09 04:44:27;;;;;;;13.27;9.03;;;;;;;;;;4989406;28;20197;-69
2023/07/09 04:46:54;;;;;;;17.47;10.33;;;;;;;;;;4956217;28;20197;-69
2023/07/09 04:49:21;;;;;;;12.57;9.53;;;;;;;;;;4988635;28;20226;-66
2023/07/09 04:51:48;;;;;;;11.20;8.87;;;;;;;;;;4988587;28;20611;-69
2023/07/09 04:54:15;;;;;;;15.67;9.30;;;;;;;;;;4979604;28;20656;-69
2023/07/09 04:56:44;;;;;;;14.13;9.10;;;;;;;;;;4957642;28;20194;-70
2023/07/09 04:59:11;;;;;;;13.23;8.77;;;;;;;;;;4985744;28;20221;-68
2023/07/09 05:01:38;;;;;;;10.80;8.20;;;;;;;;;;4974816;28;20198;-68
2023/07/09 05:04:06;;;;;;;13.97;8.70;;;;;;;;;;4987010;28;20251;-68
2023/07/09 05:06:34;;;;;;;11.37;8.47;;;;;;;;;;4986887;28;20223;-68
2023/07/09 05:09:03;;;;;;;10.23;8.17;;;;;;;;;;4985304;28;20216;-67
2023/07/09 05:11:33;;;;;;;11.53;8.30;;;;;;;;;;4987442;28;20199;-70
2023/07/09 05:13:59;;;;;;;12.43;8.20;;;;;;;;;;4984609;28;20220;-68
2023/07/09 05:16:26;;;;;;;9.83;7.43;;;;;;;;;;4987358;28;20211;-69
2023/07/09 05:19:11;;;;;;;13.63;7.03;;;;;;;;;;4987377;28;20172;-66
2023/07/09 05:21:38;;;;;;;13.23;7.20;;;;;;;;;;4981899;28;20190;-68
2023/07/09 05:24:05;;;;;;;7.33;6.20;;;;;;;;;;4974544;28;20212;-70
2023/07/09 05:26:32;;;;;;;9.67;6.00;;;;;;;;;;4969782;28;20197;-69
2023/07/09 05:28:59;;;;;;;9.40;6.13;;;;;;;;;;4985736;28;20506;-69
2023/07/09 05:31:26;;;;;;;6.83;5.30;;;;;;;;;;4981610;28;20193;-70
2023/07/09 05:33:53;;;;;;;6.90;5.37;;;;;;;;;;4967158;28;20269;-70
2023/07/09 05:36:20;;;;;;;7.77;5.33;;;;;;;;;;4970452;28;20559;-68
2023/07/09 05:38:47;;;;;;;9.67;5.33;;;;;;;;;;4986578;28;20589;-68
2023/07/09 05:41:16;;;;;;;8.13;5.50;;;;;;;;;;4987422;28;20196;-68
2023/07/09 05:43:47;;;;;;;6.77;5.03;;;;;;;;;;4987355;28;20203;-68
2023/07/09 05:46:14;;;;;;;6.03;5.03;;;;;;;;;;4986967;28;20185;-68
2023/07/09 05:48:41;;;;;;;6.87;4.87;;;;;;;;;;4984336;28;21009;-69
2023/07/09 05:51:08;;;;;;;7.47;5.10;;;;;;;;;;4983025;28;20237;-72
2023/07/09 05:53:35;;;;;;;9.60;5.00;;;;;;;;;;4986698;28;20255;-70
2023/07/09 05:56:01;;;;;;;6.77;4.40;;;;;;;;;;4984942;28;20195;-70
2023/07/09 05:58:29;;;;;;;7.50;4.40;;;;;;;;;;4976284;28;20232;-70
2023/07/09 06:00:57;;;;;;;5.50;3.90;;;;;;;;;;4986626;28;20825;-69
2023/07/09 06:03:24;;;;;;;5.53;4.50;;;;;;;;;;4976373;28;20192;-70
2023/07/09 06:05:52;;;;;;;5.30;4.03;;;;;;;;;;4975116;28;20247;-71
2023/07/09 06:08:19;;;;;;;5.73;3.40;;;;;;;;;;4984017;28;21021;-70
2023/07/09 06:10:52;;;;;;;5.20;3.20;;;;;;;;;;4986364;28;20299;-70
2023/07/09 06:13:20;;;;;;;2.47;1.33;;;;;;;;;;4986173;28;20267;-70
2023/07/09 06:16:05;;;;;;;1.63;1.13;;;;;;;;;;4984540;28;20270;-69
2023/07/09 06:18:33;;;;;;;4.37;1.67;;;;;;;;;;4986845;28;20188;-70
2023/07/09 06:21:01;;;;;;;2.60;1.63;;;;;;;;;;4985109;28;20196;-70
2023/07/09 06:23:28;;;;;;;2.60;1.80;;;;;;;;;;4967083;28;20209;-69
2023/07/09 06:25:55;;;;;;;2.90;1.60;;;;;;;;;;4982245;28;20331;-69
2023/07/09 06:28:22;;;;;;;1.63;1.13;;;;;;;;;;4986841;28;20315;-66
2023/07/09 06:30:49;;;;;;;1.50;1.10;;;;;;;;;;4986851;28;20231;-68
2023/07/09 06:33:16;;;;;;;1.30;1.07;;;;;;;;;;4968734;28;20199;-67
2023/07/09 06:35:46;;;;;;;3.13;1.23;;;;;;;;;;4966135;28;20192;-68
2023/07/09 06:38:13;;;;;;;2.27;1.13;;;;;;;;;;4988943;28;20189;-68
2023/07/09 06:40:40;;;;;;;1.60;1.30;;;;;;;;;;4989296;28;20185;-68
2023/07/09 06:43:06;;;;;;;1.60;1.20;;;;;;;;;;4984883;28;20207;-68
2023/07/09 06:45:37;;;;;;;2.27;1.00;;;;;;;;;;4973344;28;20200;-68
2023/07/09 06:48:04;;;;;;;2.03;1.40;;;;;;;;;;4991242;28;20212;-68
2023/07/09 06:50:34;;;;;;;1.80;1.20;;;;;;;;;;4992508;28;20240;-68
2023/07/09 06:53:02;;;;;;;3.10;1.23;;;;;;;;;;4979098;28;20192;-68
2023/07/09 06:55:29;;;;;;;2.50;1.40;;;;;;;;;;4992526;28;20669;-68
2023/07/09 06:57:56;;;;;;;1.30;1.10;;;;;;;;;;4979009;28;20275;-68
2023/07/09 07:00:23;;;;;;;1.60;1.10;;;;;;;;;;4980589;28;20239;-68
2023/07/09 07:03:08;;;;;;;2.00;1.10;;;;;;;;;;4977738;28;20235;-69
2023/07/09 07:05:35;;;;;;;2.43;1.27;;;;;;;;;;4991965;28;20899;-69
2023/07/09 07:08:02;;;;;;;1.67;1.10;;;;;;;;;;4991159;28;20280;-68
2023/07/09 07:10:29;;;;;;;1.40;1.00;;;;;;;;;;4991789;28;20208;-69
2023/07/09 07:12:56;;;;;;;1.83;1.20;;;;;;;;;;4990385;28;20197;-69
2023/07/09 07:15:23;;;;;;;1.70;1.00;;;;;;;;;;4992149;28;20192;-68
2023/07/09 07:17:50;;;;;;;1.17;1.00;;;;;;;;;;4989967;28;20197;-69
2023/07/09 07:20:17;;;;;;;1.63;1.30;;;;;;;;;;4992344;28;20243;-68
2023/07/09 07:22:44;;;;;;;1.63;1.30;;;;;;;;;;4988295;28;20192;-67
2023/07/09 07:25:12;;;;;;;2.43;1.30;;;;;;;;;;4992282;28;20198;-67
2023/07/09 07:27:39;;;;;;;1.20;1.10;;;;;;;;;;4987637;28;20192;-68
2023/07/09 07:30:09;;;;;;;2.23;1.20;;;;;;;;;;4990199;28;20219;-67
2023/07/09 07:32:37;;;;;;;2.63;1.20;;;;;;;;;;4981207;28;20197;-68
2023/07/09 07:35:07;;;;;;;2.97;1.20;;;;;;;;;;4970748;28;20700;-68
2023/07/09 07:37:34;;;;;;;3.47;1.37;;;;;;;;;;4985515;28;20599;-68
2023/07/09 07:40:01;;;;;;;2.90;1.40;;;;;;;;;;4990129;28;20192;-67
2023/07/09 07:42:28;;;;;;;2.17;1.30;;;;;;;;;;4984292;28;20188;-67
2023/07/09 07:44:54;;;;;;;1.37;1.23;;;;;;;;;;4990957;28;20198;-67
2023/07/09 07:47:21;;;;;;;1.80;1.30;;;;;;;;;;4983677;28;20189;-68
2023/07/09 07:49:48;;;;;;;2.33;1.20;;;;;;;;;;4989667;28;20253;-68
2023/07/09 07:52:15;;;;;;;1.93;1.23;;;;;;;;;;4989135;28;20228;-67
2023/07/09 07:54:42;;;;;;;2.13;1.10;;;;;;;;;;4990963;28;20212;-68
2023/07/09 07:57:10;;;;;;;1.90;1.23;;;;;;;;;;4981145;28;20224;-67
2023/07/09 07:59:37;;;;;;;2.60;1.20;;;;;;;;;;4981854;28;21021;-67
2023/07/09 08:02:04;;;;;;;1.63;1.23;;;;;;;;;;4989697;28;20378;-67
2023/07/09 08:04:31;;;;;;;1.70;1.30;;;;;;;;;;4989255;28;20300;-67
2023/07/09 08:07:17;;;;;;;1.40;1.30;;;;;;;;;;4979788;28;20181;-69
2023/07/09 08:09:44;;;;;;;2.00;1.30;;;;;;;;;;4989437;28;20669;-70
2023/07/09 08:12:12;;;;;;;3.57;1.40;;;;;;;;;;4981680;28;20190;-69
2023/07/09 08:14:42;;;;;;;1.97;1.40;;;;;;;;;;4988532;28;20219;-68
2023/07/09 08:17:09;;;;;;;1.90;1.20;;;;;;;;;;4981993;28;20197;-67
2023/07/09 08:19:46;;;;;;;2.53;1.50;;;;;;;;;;4986513;28;20200;-68
2023/07/09 08:22:14;;;;;;;1.77;1.30;;;;;;;;;;4989885;28;20285;-69
2023/07/09 08:44:55;;;;;;;2.37;1.23;;;;;;;;;;4990118;28;20221;-68
2023/07/09 08:47:24;;;;;;;1.90;1.40;;;;;;;;;;4988566;28;20203;-68
2023/07/09 08:50:11;;;;;;;2.00;1.40;;;;;;;;;;4991627;28;20251;-68
2023/07/09 08:52:54;;;;;;;2.00;1.30;;;;;;;;;;4977583;28;20274;-68
2023/07/09 08:55:22;;;;;;;1.63;1.40;;;;;;;;;;4991429;28;20195;-68
2023/07/09 08:57:52;;;;;;;1.83;1.50;;;;;;;;;;4975789;28;20268;-68
2023/07/09 09:00:23;;;;;;;1.57;1.20;;;;;;;;;;4974966;28;20199;-68
2023/07/09 09:02:56;;;;;;;2.50;1.37;;;;;;;;;;4992130;28;20193;-67
2023/07/09 09:05:23;;;;;;;1.60;1.50;;;;;;;;;;4975004;28;20679;-68
2023/07/09 09:08:02;;;;;;;2.20;2.00;;;;;;;;;;4974662;28;20254;-68
2023/07/09 09:10:33;;;;;;;2.00;1.70;;;;;;;;;;4974816;28;20803;-67
2023/07/09 09:13:18;;;;;;;5.63;3.43;;;;;;;;;;4985298;28;20268;-68
2023/07/09 09:15:45;;;;;;;3.03;1.80;;;;;;;;;;4991901;28;20248;-68
2023/07/09 09:18:16;;;;;;;3.90;1.83;;;;;;;;;;4974221;28;20189;-68
2023/07/09 09:20:43;;;;;;;3.90;2.80;;;;;;;;;;4991179;28;20225;-68
2023/07/09 09:23:12;;;;;;;3.00;2.33;;;;;;;;;;4991271;28;20192;-68
2023/07/09 09:25:40;;;;;;;1.60;1.50;;;;;;;;;;4974711;28;20235;-68
2023/07/09 09:28:07;;;;;;;1.97;1.33;;;;;;;;;;4990822;28;20248;-67
2023/07/09 09:30:35;;;;;;;2.33;1.30;;;;;;;;;;4993357;28;20218;-67
2023/07/09 09:33:14;;;;;;;1.43;1.20;;;;;;;;;;4990709;28;20208;-66
2023/07/09 09:35:43;;;;;;;2.30;1.40;;;;;;;;;;4981563;28;20193;-68
2023/07/09 09:38:30;;;;;;;1.77;1.43;;;;;;;;;;4990878;28;20228;-68
2023/07/09 09:41:00;;;;;;;1.93;1.40;;;;;;;;;;4981883;28;20195;-68
2023/07/09 09:43:31;;;;;;;2.13;1.60;;;;;;;;;;4990486;28;20201;-68
2023/07/09 09:46:02;;;;;;;4.07;2.80;;;;;;;;;;4990781;28;20204;-69
2023/07/09 09:48:31;;;;;;;3.80;1.47;;;;;;;;;;4990144;28;20226;-69
2023/07/09 09:51:03;;;;;;;1.63;1.37;;;;;;;;;;4991009;28;20278;-69
2023/07/09 09:53:37;;;;;;;1.80;1.60;;;;;;;;;;4990120;28;20286;-69
2023/07/09 09:56:06;;;;;;;1.43;1.33;;;;;;;;;;4989794;28;20199;-68
2023/07/09 09:58:54;;;;;;;3.10;1.60;;;;;;;;;;4990819;28;20183;-68
2023/07/09 10:01:34;;;;;;;1.50;1.40;;;;;;;;;;4991233;28;20207;-68
2023/07/09 10:04:03;;;;;;;2.20;1.40;;;;;;;;;;4991122;28;20233;-68
2023/07/09 10:06:41;;;;;;;2.70;1.53;;;;;;;;;;5005757;28;20731;-68
2023/07/09 10:09:16;;;;;;;1.93;1.43;;;;;;;;;;4989406;28;20224;-68
2023/07/09 10:11:48;;;;;;;1.63;1.53;;;;;;;;;;4989424;28;20648;-68
2023/07/09 10:14:21;;;;;;;2.43;1.50;;;;;;;;;;4989324;28;20220;-69
2023/07/09 10:16:51;;;;;;;2.00;1.37;;;;;;;;;;4990725;28;20242;-69
2023/07/09 10:19:26;;;;;;;1.57;1.47;;;;;;;;;;4988965;28;20221;-69
2023/07/09 10:21:57;;;;;;;2.80;1.70;;;;;;;;;;4992622;28;20750;-69
2023/07/09 10:24:27;;;;;;;15.53;8.70;;;;;;;;;;4991450;28;20225;-69
2023/07/09 10:27:11;;;;;;;4.57;2.80;;;;;;;;;;4991928;28;20203;-69
2023/07/09 10:30:05;;;;;;;1.73;1.63;;;;;;;;;;4991418;28;20278;-69
2023/07/09 10:32:51;;;;;;;1.87;1.50;;;;;;;;;;4972531;28;20664;-69
2023/07/09 10:36:02;;;;;;;3.33;1.63;;;;;;;;;;4969495;28;20660;-69
2023/07/09 10:38:33;;;;;;;1.60;1.50;;;;;;;;;;4971382;28;20225;-69
2023/07/09 10:41:12;;;;;;;1.87;1.63;;;;;;;;;;4972315;28;20252;-69
2023/07/09 10:43:56;;;;;;;2.10;1.83;;;;;;;;;;4971568;28;20272;-69
2023/07/09 10:46:28;;;;;;;2.67;1.47;;;;;;;;;;4972308;28;20216;-69
2023/07/09 10:48:58;;;;;;;1.97;1.60;;;;;;;;;;4972217;28;20185;-69
2023/07/09 10:51:28;;;;;;;2.77;1.67;;;;;;;;;;4991019;28;20287;-69
2023/07/09 10:54:19;;;;;;;1.70;1.60;;;;;;;;;;4991521;28;20184;-68
2023/07/09 10:56:50;;;;;;;2.23;1.57;;;;;;;;;;4990162;28;20270;-68
2023/07/09 10:59:19;;;;;;;1.87;1.60;;;;;;;;;;4990110;28;20207;-68
2023/07/09 11:02:22;;;;;;;4.07;1.70;;;;;;;;;;4990090;28;20182;-68
2023/07/09 11:04:53;;;;;;;1.70;1.60;;;;;;;;;;4989270;28;20734;-68
2023/07/09 11:07:32;;;;;;;2.77;1.60;;;;;;;;;;4989955;28;20232;-68
2023/07/09 11:10:00;;;;;;;1.50;1.40;;;;;;;;;;4989808;28;21223;-68
2023/07/09 11:12:34;;;;;;;3.13;1.60;;;;;;;;;;4991339;28;20222;-68
2023/07/09 11:15:01;;;;;;;2.37;1.50;;;;;;;;;;4989838;28;20243;-69
2023/07/09 11:17:28;;;;;;;2.30;1.60;;;;;;;;;;4990904;28;20188;-68
2023/07/09 11:19:56;;;;;;;2.23;1.80;;;;;;;;;;4990021;28;20199;-68
2023/07/09 11:22:25;;;;;;;1.60;1.50;;;;;;;;;;4968376;28;20200;-68
2023/07/09 11:25:10;;;;;;;2.00;1.80;;;;;;;;;;4989922;28;20217;-68
2023/07/09 11:28:03;;;;;;;2.63;1.40;;;;;;;;;;4990853;28;20191;-68
2023/07/09 11:30:33;;;;;;;2.23;1.53;;;;;;;;;;4990728;28;20216;-68
2023/07/09 11:33:15;;;;;;;2.13;1.70;;;;;;;;;;4988330;28;20223;-68
2023/07/09 11:35:51;;;;;;;2.50;1.60;;;;;;;;;;4989522;28;20253;-68
2023/07/09 11:38:19;;;;;;;3.43;1.87;;;;;;;;;;4985642;28;20190;-68
2023/07/09 11:40:51;;;;;;;2.47;1.53;;;;;;;;;;4990935;28;20212;-69
2023/07/09 11:43:32;;;;;;;2.10;1.50;;;;;;;;;;4989338;28;20206;-68
2023/07/09 11:46:10;;;;;;;1.70;1.60;;;;;;;;;;4990386;28;20202;-68
2023/07/09 11:48:37;;;;;;;2.53;1.50;;;;;;;;;;4973148;28;20262;-70
2023/07/09 11:51:05;;;;;;;2.33;1.67;;;;;;;;;;4988461;28;20228;-70
2023/07/09 11:53:37;;;;;;;2.40;1.70;;;;;;;;;;4986684;28;20712;-70
2023/07/09 11:56:07;;;;;;;1.93;1.60;;;;;;;;;;4981380;28;20303;-70
2023/07/09 11:58:34;;;;;;;2.43;1.67;;;;;;;;;;4965976;28;20400;-70
2023/07/09 12:01:09;;;;;;;5.27;1.87;;;;;;;;;;4968954;28;20275;-70
2023/07/09 12:03:56;;;;;;;3.87;1.70;;;;;;;;;;4974656;28;20177;-70
2023/07/09 12:06:24;;;;;;;2.63;1.60;;;;;;;;;;4992283;28;20245;-67
2023/07/09 12:09:15;;;;;;;2.40;1.80;;;;;;;;;;4991358;28;20194;-70
2023/07/09 12:12:03;;;;;;;2.73;1.80;;;;;;;;;;4988765;28;20338;-70
2023/07/09 12:14:48;;;;;;;2.37;1.80;;;;;;;;;;4988683;28;20194;-69
2023/07/09 12:17:16;;;;;;;2.03;1.87;;;;;;;;;;4988679;28;20255;-69
2023/07/09 12:19:50;;;;;;;2.20;1.63;;;;;;;;;;4990297;28;20199;-69
2023/07/09 12:22:21;;;;;;;3.00;1.80;;;;;;;;;;4990687;28;20198;-69
2023/07/09 12:24:49;;;;;;;2.37;2.00;;;;;;;;;;4992536;28;20244;-69
2023/07/09 12:27:23;;;;;;;1.80;1.70;;;;;;;;;;4992406;28;20194;-68
2023/07/09 12:29:54;;;;;;;2.60;1.70;;;;;;;;;;4990637;28;20285;-68
2023/07/09 12:32:26;;;;;;;3.17;2.13;;;;;;;;;;5003861;28;20310;-68
2023/07/09 12:35:15;;;;;;;2.77;1.97;;;;;;;;;;4991477;28;20183;-68
2023/07/09 12:37:45;;;;;;;1.97;1.60;;;;;;;;;;4989633;28;20216;-68
2023/07/09 12:43:54;;;;;;;2.33;1.70;;;;;;;;;;4981839;28;20220;-69
2023/07/09 12:46:52;;;;;;;1.87;1.67;;;;;;;;;;4992536;28;20288;-68
2023/07/09 12:50:27;;;;;;;2.50;1.90;;;;;;;;;;4980297;28;20284;-68
2023/07/09 12:53:25;;;;;;;2.63;1.70;;;;;;;;;;4958435;28;20241;-69
2023/07/09 12:56:00;;;;;;;3.53;1.70;;;;;;;;;;4989134;28;20200;-68
2023/07/09 12:58:32;;;;;;;1.97;1.77;;;;;;;;;;4941539;28;20188;-68
2023/07/09 13:00:59;;;;;;;2.50;1.50;;;;;;;;;;4948897;29;20285;-68
2023/07/09 13:03:27;;;;;;;2.23;1.70;;;;;;;;;;4953076;28;20546;-68
2023/07/09 13:06:01;;;;;;;1.40;1.30;;;;;;;;;;4948943;29;20189;-68
2023/07/09 13:08:29;;;;;;;2.37;1.90;;;;;;;;;;4950326;29;20192;-68
2023/07/09 13:10:56;;;;;;;1.90;1.60;;;;;;;;;;4945814;28;20212;-68
2023/07/09 13:13:23;;;;;;;3.57;1.97;;;;;;;;;;4969008;28;20281;-68
2023/07/09 13:16:24;;;;;;;1.80;1.57;;;;;;;;;;4969315;28;20625;-68
2023/07/09 13:18:52;;;;;;;2.03;1.83;;;;;;;;;;4968767;28;20283;-68
2023/07/09 13:21:19;;;;;;;2.53;1.80;;;;;;;;;;4951688;28;20209;-68
2023/07/09 13:23:46;;;;;;;2.37;1.70;;;;;;;;;;4968891;28;20197;-68
2023/07/09 13:26:14;;;;;;;3.00;1.90;;;;;;;;;;4969203;28;20196;-68
2023/07/09 13:28:42;;;;;;;2.70;1.77;;;;;;;;;;4968898;28;20193;-68
2023/07/09 13:31:09;;;;;;;1.70;1.50;;;;;;;;;;4968696;28;20219;-68
2023/07/09 13:33:57;;;;;;;2.13;1.77;;;;;;;;;;4957410;28;20290;-68
2023/07/09 13:36:26;;;;;;;2.70;1.90;;;;;;;;;;4932479;29;20190;-68
2023/07/09 13:38:55;;;;;;;4.43;2.30;;;;;;;;;;4932956;29;20228;-68
2023/07/09 13:41:27;;;;;;;2.13;1.93;;;;;;;;;;4965743;28;20566;-68
2023/07/09 13:43:57;;;;;;;2.67;1.90;;;;;;;;;;4967647;28;20296;-69
2023/07/09 13:46:27;;;;;;;2.37;2.00;;;;;;;;;;4968896;28;20186;-68
2023/07/09 13:48:55;;;;;;;2.13;1.77;;;;;;;;;;4968872;28;20340;-68
2023/07/09 13:51:23;;;;;;;2.67;1.67;;;;;;;;;;4977370;28;20661;-68
2023/07/09 13:53:51;;;;;;;3.10;1.63;;;;;;;;;;5002899;28;20185;-68
2023/07/09 13:56:24;;;;;;;3.80;1.80;;;;;;;;;;5001670;28;20271;-68
2023/07/09 13:58:54;;;;;;;2.30;1.90;;;;;;;;;;4988444;28;20193;-68
2023/07/09 14:01:21;;;;;;;2.27;1.67;;;;;;;;;;4987909;28;20687;-68
2023/07/09 14:03:48;;;;;;;2.10;1.90;;;;;;;;;;5002871;28;20287;-68
2023/07/09 14:06:16;;;;;;;2.30;1.67;;;;;;;;;;4987925;28;20208;-68
2023/07/09 14:08:43;;;;;;;2.30;1.80;;;;;;;;;;4987720;28;20213;-68
2023/07/09 14:11:11;;;;;;;2.40;1.80;;;;;;;;;;4987727;28;20206;-68
2023/07/09 14:13:38;;;;;;;2.37;1.90;;;;;;;;;;4986960;28;20699;-68
2023/07/09 14:16:05;;;;;;;2.23;1.77;;;;;;;;;;4987815;28;20195;-68
2023/07/09 14:18:32;;;;;;;3.03;2.20;;;;;;;;;;4987288;28;20842;-68
2023/07/09 14:21:00;;;;;;;3.53;2.10;;;;;;;;;;4987771;28;20207;-67
2023/07/09 14:23:27;;;;;;;2.77;2.10;;;;;;;;;;4982256;28;20224;-68
2023/07/09 14:25:57;;;;;;;4.77;2.10;;;;;;;;;;4985216;28;20683;-68
2023/07/09 14:28:24;;;;;;;2.90;2.00;;;;;;;;;;4987330;28;20273;-68
2023/07/09 14:30:50;;;;;;;3.40;2.10;;;;;;;;;;4987222;28;20197;-68
2023/07/09 14:33:19;;;;;;;2.70;2.17;;;;;;;;;;4987103;28;20321;-68
2023/07/09 14:35:45;;;;;;;3.27;2.00;;;;;;;;;;4985650;28;20200;-68
2023/07/09 14:38:17;;;;;;;2.73;2.30;;;;;;;;;;4986148;28;20852;-68
2023/07/09 14:40:45;;;;;;;2.97;2.07;;;;;;;;;;4987991;28;20544;-68
2023/07/09 14:43:13;;;;;;;3.10;2.10;;;;;;;;;;4986434;28;20193;-68
2023/07/09 14:45:40;;;;;;;2.60;2.03;;;;;;;;;;4986977;28;20200;-68
2023/07/09 14:48:10;;;;;;;3.90;2.30;;;;;;;;;;4987338;28;20212;-68
2023/07/09 14:50:54;;;;;;;2.30;2.10;;;;;;;;;;4987071;28;20240;-68
2023/07/09 14:53:22;;;;;;;3.80;2.30;;;;;;;;;;4987150;28;20224;-69
2023/07/09 14:55:49;;;;;;;3.87;2.30;;;;;;;;;;4988576;28;20193;-69
2023/07/09 14:58:17;;;;;;;3.53;2.20;;;;;;;;;;4980420;28;20194;-68
2023/07/09 15:00:49;;;;;;;4.17;2.40;;;;;;;;;;4968100;28;20268;-69
2023/07/09 15:03:20;;;;;;;3.87;2.30;;;;;;;;;;4974534;28;20292;-71
2023/07/09 15:05:48;;;;;;;2.87;2.20;;;;;;;;;;4977365;28;20620;-71
2023/07/09 15:08:19;;;;;;;3.20;2.03;;;;;;;;;;4974147;28;20267;-70
2023/07/09 15:10:46;;;;;;;2.27;2.00;;;;;;;;;;5002541;28;20200;-69
2023/07/09 15:13:30;;;;;;;3.70;2.33;;;;;;;;;;4989211;28;20575;-71
2023/07/09 15:15:58;;;;;;;4.63;1.97;;;;;;;;;;4986442;28;20301;-70
2023/07/09 15:18:25;;;;;;;4.53;2.00;;;;;;;;;;4986661;28;20244;-70
2023/07/09 15:20:56;;;;;;;2.97;2.17;;;;;;;;;;4987927;28;20207;-72
2023/07/09 15:23:23;;;;;;;4.23;2.23;;;;;;;;;;4986806;28;20250;-71
2023/07/09 15:25:50;;;;;;;3.63;1.93;;;;;;;;;;4968620;28;20208;-70
2023/07/09 15:28:18;;;;;;;5.03;1.87;;;;;;;;;;4976542;28;20320;-70
2023/07/09 15:30:45;;;;;;;3.30;2.20;;;;;;;;;;4984714;28;20208;-70
2023/07/09 15:33:16;;;;;;;3.60;2.20;;;;;;;;;;4986287;28;20223;-70
2023/07/09 15:35:43;;;;;;;3.93;2.23;;;;;;;;;;4984039;28;20221;-70
2023/07/09 15:38:20;;;;;;;3.07;2.23;;;;;;;;;;4988928;28;20192;-71
2023/07/09 15:40:47;;;;;;;2.50;2.00;;;;;;;;;;4987499;28;20196;-71
2023/07/09 15:43:15;;;;;;;3.23;2.00;;;;;;;;;;4987170;28;20712;-70
2023/07/09 15:45:43;;;;;;;3.93;2.43;;;;;;;;;;4970055;28;20186;-70
2023/07/09 15:48:33;;;;;;;4.43;2.17;;;;;;;;;;4969560;28;20200;-70
2023/07/09 15:51:01;;;;;;;4.10;2.37;;;;;;;;;;4970204;28;20655;-71
2023/07/09 15:53:29;;;;;;;3.80;2.73;;;;;;;;;;4983659;28;20700;-71
2023/07/09 15:56:06;;;;;;;5.63;4.20;;;;;;;;;;4988596;28;20819;-72